Time,TemperatureF,DewpointF,PressureIn,WindDirection,WindDirectionDegrees,WindSpeedMPH,WindSpeedGustMPH,Humidity,HourlyPrecipIn,Conditions,Clouds,dailyrainin,SoftwareType,DateUTC
2013-01-16 00:01:00,26.8,14.8,30.09,NNW,338,0.0,1.1,60,0.00,,,0.00,WUHU216HW,2013-01-16 07:01:00,
2013-01-16 00:06:00,26.8,14.8,30.09,NW,315,0.0,1.1,60,0.00,,,0.00,WUHU216HW,2013-01-16 07:06:00,
2013-01-16 00:11:00,26.6,14.6,30.09,NNE,23,1.1,1.1,60,0.00,,,0.00,WUHU216HW,2013-01-16 07:11:00,
2013-01-16 00:16:00,26.5,14.8,30.09,North,0,0.0,1.8,61,0.00,,,0.00,WUHU216HW,2013-01-16 07:16:00,
2013-01-16 00:21:00,26.5,14.8,30.09,NW,315,1.3,1.8,61,0.00,,,0.00,WUHU216HW,2013-01-16 07:21:00,
2013-01-16 00:26:00,26.5,15.1,30.09,NW,315,1.1,1.3,62,0.00,,,0.00,WUHU216HW,2013-01-16 07:26:00,
2013-01-16 00:31:00,26.6,15.3,30.09,NW,315,1.6,1.6,62,0.00,,,0.00,WUHU216HW,2013-01-16 07:31:00,
2013-01-16 00:36:00,26.6,15.3,30.09,NW,315,2.0,2.0,62,0.00,,,0.00,WUHU216HW,2013-01-16 07:36:00,
2013-01-16 00:41:00,26.6,15.3,30.09,NW,315,1.1,2.0,62,0.00,,,0.00,WUHU216HW,2013-01-16 07:41:00,
2013-01-16 00:46:00,26.8,15.5,30.09,NW,315,1.1,1.8,62,0.00,,,0.00,WUHU216HW,2013-01-16 07:46:00,
2013-01-16 00:51:00,26.8,15.1,30.08,NW,315,1.8,2.2,61,0.00,,,0.00,WUHU216HW,2013-01-16 07:51:00,
2013-01-16 00:56:00,27.0,15.3,30.09,NW,315,1.1,2.2,61,0.00,,,0.00,WUHU216HW,2013-01-16 07:56:00,
2013-01-16 01:01:00,27.0,14.9,30.09,NW,315,0.4,1.8,60,0.00,,,0.00,WUHU216HW,2013-01-16 08:01:00,
2013-01-16 01:06:00,27.0,14.9,30.09,NW,315,0.2,1.8,60,0.00,,,0.00,WUHU216HW,2013-01-16 08:06:00,
2013-01-16 01:11:00,27.0,14.9,30.09,NNW,338,0.0,1.1,60,0.00,,,0.00,WUHU216HW,2013-01-16 08:11:00,
2013-01-16 01:16:00,27.0,14.9,30.09,NW,315,0.0,0.4,60,0.00,,,0.00,WUHU216HW,2013-01-16 08:16:00,
2013-01-16 01:21:00,27.2,15.1,30.09,NNW,338,0.0,0.9,60,0.00,,,0.00,WUHU216HW,2013-01-16 08:21:00,
2013-01-16 01:26:00,27.2,15.1,30.09,NE,45,1.1,1.1,60,0.00,,,0.00,WUHU216HW,2013-01-16 08:26:00,
2013-01-16 01:31:00,27.0,14.9,30.09,North,0,2.5,3.4,60,0.00,,,0.00,WUHU216HW,2013-01-16 08:31:00,
2013-01-16 01:36:00,26.8,14.8,30.09,NE,45,2.5,3.4,60,0.00,,,0.00,WUHU216HW,2013-01-16 08:36:00,
2013-01-16 01:41:00,26.8,14.8,30.10,NNE,23,4.0,5.8,60,0.00,,,0.00,WUHU216HW,2013-01-16 08:41:00,
2013-01-16 01:46:00,27.2,14.7,30.10,North,0,2.2,5.8,59,0.00,,,0.00,WUHU216HW,2013-01-16 08:46:00,
2013-01-16 01:51:00,27.5,14.7,30.10,NE,45,2.5,4.9,58,0.00,,,0.00,WUHU216HW,2013-01-16 08:51:00,
2013-01-16 01:56:00,27.7,14.4,30.10,ESE,113,0.0,2.9,57,0.00,,,0.00,WUHU216HW,2013-01-16 08:56:00,
2013-01-16 02:01:00,27.5,14.7,30.10,SE,135,2.0,2.9,58,0.00,,,0.00,WUHU216HW,2013-01-16 09:01:00,
2013-01-16 02:06:00,26.6,14.1,30.10,WSW,248,1.1,2.2,59,0.00,,,0.00,WUHU216HW,2013-01-16 09:06:00,
2013-01-16 02:11:00,25.9,14.0,30.11,WNW,293,0.7,1.3,60,0.00,,,0.00,WUHU216HW,2013-01-16 09:11:00,
2013-01-16 02:16:00,25.6,14.0,30.11,ESE,113,0.0,1.3,61,0.00,,,0.00,WUHU216HW,2013-01-16 09:16:00,
2013-01-16 02:21:00,25.2,13.6,30.11,SSW,203,2.2,2.2,61,0.00,,,0.00,WUHU216HW,2013-01-16 09:21:00,
2013-01-16 02:26:00,25.2,13.6,30.11,WSW,248,0.0,2.2,61,0.00,,,0.00,WUHU216HW,2013-01-16 09:26:00,
2013-01-16 02:31:00,25.2,13.6,30.12,NE,45,1.3,1.8,61,0.00,,,0.00,WUHU216HW,2013-01-16 09:31:00,
2013-01-16 02:36:00,25.0,13.5,30.12,WSW,248,0.0,1.3,61,0.00,,,0.00,WUHU216HW,2013-01-16 09:36:00,
2013-01-16 02:41:00,25.0,13.8,30.12,NE,45,0.2,1.8,62,0.00,,,0.00,WUHU216HW,2013-01-16 09:41:00,
2013-01-16 02:46:00,25.0,13.8,30.11,WNW,293,0.4,1.8,62,0.00,,,0.00,WUHU216HW,2013-01-16 09:46:00,
2013-01-16 02:51:00,25.0,13.8,30.11,SW,225,0.0,0.7,62,0.00,,,0.00,WUHU216HW,2013-01-16 09:51:00,
2013-01-16 02:56:00,25.0,13.8,30.11,NW,315,0.0,0.2,62,0.00,,,0.00,WUHU216HW,2013-01-16 09:56:00,
2013-01-16 03:01:00,24.8,13.7,30.11,NW,315,0.4,0.7,62,0.00,,,0.00,WUHU216HW,2013-01-16 10:01:00,
2013-01-16 03:06:00,24.8,13.7,30.11,NW,315,1.3,1.3,62,0.00,,,0.00,WUHU216HW,2013-01-16 10:06:00,
2013-01-16 03:11:00,24.8,14.0,30.11,South,180,1.8,1.8,63,0.00,,,0.00,WUHU216HW,2013-01-16 10:11:00,
2013-01-16 03:16:00,24.7,13.5,30.11,WNW,293,0.2,1.8,62,0.00,,,0.00,WUHU216HW,2013-01-16 10:16:00,
2013-01-16 03:21:00,24.3,13.2,30.11,WSW,248,0.7,2.2,62,0.00,,,0.00,WUHU216HW,2013-01-16 10:21:00,
2013-01-16 03:26:00,24.3,13.5,30.11,NNW,338,0.4,2.2,63,0.00,,,0.00,WUHU216HW,2013-01-16 10:26:00,
2013-01-16 03:31:00,24.3,13.5,30.11,North,0,0.0,0.7,63,0.00,,,0.00,WUHU216HW,2013-01-16 10:31:00,
2013-01-16 03:36:00,24.3,13.8,30.11,NNW,338,0.0,0.9,64,0.00,,,0.00,WUHU216HW,2013-01-16 10:36:00,
2013-01-16 03:41:00,24.1,13.7,30.10,ENE,68,0.0,0.9,64,0.00,,,0.00,WUHU216HW,2013-01-16 10:41:00,
2013-01-16 03:46:00,24.1,13.7,30.10,ENE,68,1.8,1.8,64,0.00,,,0.00,WUHU216HW,2013-01-16 10:46:00,
2013-01-16 03:51:00,24.1,13.7,30.11,NE,45,0.0,1.8,64,0.00,,,0.00,WUHU216HW,2013-01-16 10:51:00,
2013-01-16 03:56:00,24.1,13.7,30.11,SSW,203,0.0,1.6,64,0.00,,,0.00,WUHU216HW,2013-01-16 10:56:00,
2013-01-16 04:01:00,24.1,13.7,30.11,ENE,68,0.0,1.1,64,0.00,,,0.00,WUHU216HW,2013-01-16 11:01:00,
2013-01-16 04:06:00,23.9,13.5,30.11,ENE,68,0.0,0.2,64,0.00,,,0.00,WUHU216HW,2013-01-16 11:06:00,
2013-01-16 04:11:00,23.9,14.1,30.11,NE,45,2.5,2.5,66,0.00,,,0.00,WUHU216HW,2013-01-16 11:11:00,
2013-01-16 04:16:00,24.1,14.3,30.11,North,0,0.0,2.9,66,0.00,,,0.00,WUHU216HW,2013-01-16 11:16:00,
2013-01-16 04:21:00,24.1,14.3,30.11,North,0,0.0,2.9,66,0.00,,,0.00,WUHU216HW,2013-01-16 11:21:00,
2013-01-16 04:26:00,24.1,14.3,30.11,NNE,23,0.0,2.5,66,0.00,,,0.00,WUHU216HW,2013-01-16 11:26:00,
2013-01-16 04:31:00,24.1,14.0,30.11,North,0,0.0,0.9,65,0.00,,,0.00,WUHU216HW,2013-01-16 11:31:00,
2013-01-16 04:36:00,24.1,14.3,30.10,NNW,338,0.0,0.9,66,0.00,,,0.00,WUHU216HW,2013-01-16 11:36:00,
2013-01-16 04:41:00,24.1,14.3,30.11,North,0,0.0,0.4,66,0.00,,,0.00,WUHU216HW,2013-01-16 11:41:00,
2013-01-16 04:46:00,24.1,14.0,30.11,South,180,0.0,1.1,65,0.00,,,0.00,WUHU216HW,2013-01-16 11:46:00,
2013-01-16 04:51:00,23.8,13.7,30.11,NW,315,0.0,1.1,65,0.00,,,0.00,WUHU216HW,2013-01-16 11:51:00,
2013-01-16 04:56:00,23.4,13.3,30.11,NNW,338,0.0,0.4,65,0.00,,,0.00,WUHU216HW,2013-01-16 11:56:00,
2013-01-16 05:01:00,23.0,13.3,30.11,North,0,1.3,1.3,66,0.00,,,0.00,WUHU216HW,2013-01-16 12:01:00,
2013-01-16 05:06:00,23.0,13.3,30.11,NE,45,0.9,1.3,66,0.00,,,0.00,WUHU216HW,2013-01-16 12:06:00,
2013-01-16 05:11:00,22.7,13.3,30.12,WNW,293,0.0,2.2,67,0.00,,,0.00,WUHU216HW,2013-01-16 12:11:00,
2013-01-16 05:16:00,22.7,13.3,30.12,NNE,23,2.5,2.5,67,0.00,,,0.00,WUHU216HW,2013-01-16 12:16:00,
2013-01-16 05:21:00,22.9,13.9,30.12,SW,225,1.1,2.5,68,0.00,,,0.00,WUHU216HW,2013-01-16 12:21:00,
2013-01-16 05:26:00,23.0,14.0,30.11,NW,315,1.8,2.5,68,0.00,,,0.00,WUHU216HW,2013-01-16 12:26:00,
2013-01-16 05:31:00,23.2,14.2,30.13,NE,45,3.4,3.4,68,0.00,,,0.00,WUHU216HW,2013-01-16 12:31:00,
2013-01-16 05:36:00,23.8,14.7,30.13,NE,45,4.7,6.9,68,0.00,,,0.00,WUHU216HW,2013-01-16 12:36:00,
2013-01-16 05:41:00,24.7,14.9,30.12,North,0,5.4,6.9,66,0.00,,,0.00,WUHU216HW,2013-01-16 12:41:00,
2013-01-16 05:46:00,24.8,14.7,30.13,North,0,2.7,5.4,65,0.00,,,0.00,WUHU216HW,2013-01-16 12:46:00,
2013-01-16 05:51:00,25.0,14.9,30.12,WNW,293,0.0,4.0,65,0.00,,,0.00,WUHU216HW,2013-01-16 12:51:00,
2013-01-16 05:56:00,25.0,14.5,30.12,WSW,248,0.0,0.7,64,0.00,,,0.00,WUHU216HW,2013-01-16 12:56:00,
2013-01-16 06:01:00,24.8,14.3,30.12,NW,315,0.0,1.1,64,0.00,,,0.00,WUHU216HW,2013-01-16 13:01:00,
2013-01-16 06:06:00,24.5,14.0,30.12,NW,315,1.8,1.8,64,0.00,,,0.00,WUHU216HW,2013-01-16 13:06:00,
2013-01-16 06:11:00,24.1,13.7,30.13,SW,225,0.0,1.8,64,0.00,,,0.00,WUHU216HW,2013-01-16 13:11:00,
2013-01-16 06:16:00,23.8,13.7,30.13,SE,135,1.1,1.6,65,0.00,,,0.00,WUHU216HW,2013-01-16 13:16:00,
2013-01-16 06:21:00,23.2,12.8,30.13,ENE,68,0.0,1.6,64,0.00,,,0.00,WUHU216HW,2013-01-16 13:21:00,
2013-01-16 06:26:00,22.9,12.8,30.12,SE,135,0.4,1.1,65,0.00,,,0.00,WUHU216HW,2013-01-16 13:26:00,
2013-01-16 06:31:00,22.7,12.6,30.13,East,90,0.0,1.1,65,0.00,,,0.00,WUHU216HW,2013-01-16 13:31:00,
2013-01-16 06:36:00,22.7,12.6,30.13,SSE,158,0.0,0.9,65,0.00,,,0.00,WUHU216HW,2013-01-16 13:36:00,
2013-01-16 06:41:00,22.7,13.0,30.12,SW,225,0.0,0.0,66,0.00,,,0.00,WUHU216HW,2013-01-16 13:41:00,
2013-01-16 06:46:00,22.7,13.0,30.13,WSW,248,0.2,0.4,66,0.00,,,0.00,WUHU216HW,2013-01-16 13:46:00,
2013-01-16 06:52:00,22.7,13.0,30.13,NW,315,0.2,1.1,66,0.00,,,0.00,WUHU216HW,2013-01-16 13:52:00,
2013-01-16 06:57:00,22.5,12.8,30.13,NNE,23,0.0,1.6,66,0.00,,,0.00,WUHU216HW,2013-01-16 13:57:00,
2013-01-16 07:02:00,22.5,12.8,30.13,NW,315,0.0,1.6,66,0.00,,,0.00,WUHU216HW,2013-01-16 14:02:00,
2013-01-16 07:07:00,22.3,12.6,30.13,NW,315,1.6,1.6,66,0.00,,,0.00,WUHU216HW,2013-01-16 14:07:00,
2013-01-16 07:12:00,22.3,13.0,30.13,North,0,1.1,1.6,67,0.00,,,0.00,WUHU216HW,2013-01-16 14:12:00,
2013-01-16 07:17:00,22.3,13.3,30.13,NE,45,0.4,1.3,68,0.00,,,0.00,WUHU216HW,2013-01-16 14:17:00,
2013-01-16 07:22:00,22.3,13.3,30.13,WNW,293,0.4,1.3,68,0.00,,,0.00,WUHU216HW,2013-01-16 14:22:00,
2013-01-16 07:27:00,22.7,13.7,30.13,WSW,248,0.0,0.4,68,0.00,,,0.00,WUHU216HW,2013-01-16 14:27:00,
2013-01-16 07:32:00,22.7,13.7,30.14,ENE,68,1.1,1.1,68,0.00,,,0.00,WUHU216HW,2013-01-16 14:32:00,
2013-01-16 07:37:00,22.7,13.7,30.14,East,90,0.4,1.1,68,0.00,,,0.00,WUHU216HW,2013-01-16 14:37:00,
2013-01-16 07:42:00,22.7,13.7,30.14,North,0,0.0,1.1,68,0.00,,,0.00,WUHU216HW,2013-01-16 14:42:00,
2013-01-16 07:47:00,22.7,13.7,30.14,NNW,338,1.3,1.8,68,0.00,,,0.00,WUHU216HW,2013-01-16 14:47:00,
2013-01-16 07:52:00,22.9,13.9,30.14,NNW,338,0.0,1.8,68,0.00,,,0.00,WUHU216HW,2013-01-16 14:52:00,
2013-01-16 07:57:00,23.2,14.2,30.15,South,180,0.0,1.6,68,0.00,,,0.00,WUHU216HW,2013-01-16 14:57:00,
2013-01-16 08:02:00,23.4,14.4,30.15,SW,225,0.0,0.0,68,0.00,,,0.00,WUHU216HW,2013-01-16 15:02:00,
2013-01-16 08:07:00,23.6,14.2,30.16,SSW,203,0.0,0.0,67,0.00,,,0.00,WUHU216HW,2013-01-16 15:07:00,
2013-01-16 08:12:00,23.6,14.2,30.15,SSW,203,0.0,0.0,67,0.00,,,0.00,WUHU216HW,2013-01-16 15:12:00,
2013-01-16 08:17:00,23.8,14.3,30.15,East,90,0.0,0.0,67,0.00,,,0.00,WUHU216HW,2013-01-16 15:17:00,
2013-01-16 08:22:00,23.8,14.3,30.15,ENE,68,0.0,0.4,67,0.00,,,0.00,WUHU216HW,2013-01-16 15:22:00,
2013-01-16 08:27:00,23.9,14.5,30.15,North,0,1.8,1.8,67,0.00,,,0.00,WUHU216HW,2013-01-16 15:27:00,
2013-01-16 08:32:00,24.3,14.9,30.15,NW,315,0.0,1.8,67,0.00,,,0.00,WUHU216HW,2013-01-16 15:32:00,
2013-01-16 08:37:00,24.8,15.7,30.16,SW,225,0.9,1.8,68,0.00,,,0.00,WUHU216HW,2013-01-16 15:37:00,
2013-01-16 08:42:00,25.4,16.6,30.16,South,180,0.9,1.3,69,0.00,,,0.00,WUHU216HW,2013-01-16 15:42:00,
2013-01-16 08:47:00,25.7,16.9,30.16,SSW,203,1.1,1.3,69,0.00,,,0.00,WUHU216HW,2013-01-16 15:47:00,
2013-01-16 08:52:00,26.1,16.9,30.16,SSW,203,0.0,1.3,68,0.00,,,0.00,WUHU216HW,2013-01-16 15:52:00,
2013-01-16 08:57:00,26.6,17.5,30.16,SSW,203,0.0,1.1,68,0.00,,,0.00,WUHU216HW,2013-01-16 15:57:00,
2013-01-16 09:02:00,27.0,17.5,30.16,SE,135,0.4,1.6,67,0.00,,,0.00,WUHU216HW,2013-01-16 16:02:00,
2013-01-16 09:07:00,27.5,18.4,30.16,SE,135,0.4,1.6,68,0.00,,,0.00,WUHU216HW,2013-01-16 16:07:00,
2013-01-16 09:12:00,28.1,18.5,30.16,SE,135,0.2,0.4,67,0.00,,,0.00,WUHU216HW,2013-01-16 16:12:00,
2013-01-16 09:17:00,29.0,19.4,30.16,South,180,1.6,2.5,67,0.00,,,0.00,WUHU216HW,2013-01-16 16:17:00,
2013-01-16 09:22:00,29.9,19.8,30.16,SE,135,0.4,2.5,66,0.00,,,0.00,WUHU216HW,2013-01-16 16:22:00,
2013-01-16 09:27:00,30.8,20.7,30.16,South,180,0.4,1.6,66,0.00,,,0.00,WUHU216HW,2013-01-16 16:27:00,
2013-01-16 09:32:00,31.3,21.2,30.16,SSE,158,0.4,1.6,66,0.00,,,0.00,WUHU216HW,2013-01-16 16:32:00,
2013-01-16 09:37:00,32.0,21.6,30.16,SSE,158,1.1,1.8,65,0.00,,,0.00,WUHU216HW,2013-01-16 16:37:00,
2013-01-16 09:42:00,33.1,21.9,30.16,South,180,0.4,1.8,63,0.00,,,0.00,WUHU216HW,2013-01-16 16:42:00,
2013-01-16 09:47:00,34.0,22.3,30.16,SSE,158,1.6,2.2,62,0.00,,,0.00,WUHU216HW,2013-01-16 16:47:00,
2013-01-16 09:52:00,34.9,22.5,30.16,SSW,203,1.8,2.5,60,0.00,,,0.00,WUHU216HW,2013-01-16 16:52:00,
2013-01-16 09:57:00,35.6,23.2,30.16,South,180,1.8,2.5,60,0.00,,,0.00,WUHU216HW,2013-01-16 16:57:00,
2013-01-16 10:02:00,36.2,23.3,30.16,SSE,158,1.1,2.0,59,0.00,,,0.00,WUHU216HW,2013-01-16 17:02:00,
2013-01-16 10:07:00,36.7,22.5,30.16,SSW,203,1.6,2.0,56,0.00,,,0.00,WUHU216HW,2013-01-16 17:07:00,
2013-01-16 10:12:00,37.3,23.0,30.16,SSW,203,0.0,2.0,56,0.00,,,0.00,WUHU216HW,2013-01-16 17:12:00,
2013-01-16 10:17:00,37.6,21.5,30.16,SSE,158,0.0,1.1,52,0.00,,,0.00,WUHU216HW,2013-01-16 17:17:00,
2013-01-16 10:22:00,38.2,22.5,30.16,SE,135,0.4,2.0,53,0.00,,,0.00,WUHU216HW,2013-01-16 17:22:00,
2013-01-16 10:27:00,38.9,22.7,30.16,East,90,0.4,2.0,52,0.00,,,0.00,WUHU216HW,2013-01-16 17:27:00,
2013-01-16 10:32:00,39.2,22.1,30.16,South,180,2.5,2.5,50,0.00,,,0.00,WUHU216HW,2013-01-16 17:32:00,
2013-01-16 10:37:00,40.3,22.6,30.16,SE,135,1.1,4.0,49,0.00,,,0.00,WUHU216HW,2013-01-16 17:37:00,
2013-01-16 10:42:00,40.7,23.0,30.16,South,180,2.9,4.0,49,0.00,,,0.00,WUHU216HW,2013-01-16 17:42:00,
2013-01-16 10:47:00,40.9,23.0,30.16,SSE,158,0.4,2.9,49,0.00,,,0.00,WUHU216HW,2013-01-16 17:47:00,
2013-01-16 10:52:00,41.0,22.2,30.16,SE,135,0.2,2.0,47,0.00,,,0.00,WUHU216HW,2013-01-16 17:52:00,
2013-01-16 10:57:00,41.2,22.9,30.16,South,180,1.1,2.5,48,0.00,,,0.00,WUHU216HW,2013-01-16 17:57:00,
2013-01-16 11:02:00,41.8,22.9,30.16,SSW,203,0.4,2.5,47,0.00,,,0.00,WUHU216HW,2013-01-16 18:02:00,
2013-01-16 11:07:00,42.3,23.4,30.16,SSE,158,0.4,1.8,47,0.00,,,0.00,WUHU216HW,2013-01-16 18:07:00,
2013-01-16 11:12:00,42.3,23.4,30.15,South,180,0.7,2.9,47,0.00,,,0.00,WUHU216HW,2013-01-16 18:12:00,
2013-01-16 11:17:00,42.8,23.4,30.15,SSW,203,2.5,2.9,46,0.00,,,0.00,WUHU216HW,2013-01-16 18:17:00,
2013-01-16 11:22:00,43.9,23.9,30.15,South,180,0.4,3.4,45,0.00,,,0.00,WUHU216HW,2013-01-16 18:22:00,
2013-01-16 11:27:00,44.5,23.8,30.15,SSW,203,2.5,3.4,44,0.00,,,0.00,WUHU216HW,2013-01-16 18:27:00,
2013-01-16 11:32:00,45.0,23.2,30.15,SSW,203,0.2,3.1,42,0.00,,,0.00,WUHU216HW,2013-01-16 18:32:00,
2013-01-16 11:37:00,45.7,24.4,30.15,SW,225,0.2,3.1,43,0.00,,,0.00,WUHU216HW,2013-01-16 18:37:00,
2013-01-16 11:42:00,45.5,23.7,30.15,South,180,0.9,2.2,42,0.00,,,0.00,WUHU216HW,2013-01-16 18:42:00,
2013-01-16 11:47:00,45.7,23.9,30.14,SSW,203,4.0,4.0,42,0.00,,,0.00,WUHU216HW,2013-01-16 18:47:00,
2013-01-16 11:52:00,47.0,23.9,30.14,SSE,158,3.1,6.5,40,0.00,,,0.00,WUHU216HW,2013-01-16 18:52:00,
2013-01-16 11:57:00,47.3,23.6,30.14,SE,135,1.8,6.5,39,0.00,,,0.00,WUHU216HW,2013-01-16 18:57:00,
2013-01-16 12:02:00,47.9,23.4,30.14,SSE,158,3.6,5.4,38,0.00,,,0.00,WUHU216HW,2013-01-16 19:02:00,
2013-01-16 12:07:00,49.5,24.9,30.14,SE,135,2.5,6.0,38,0.00,,,0.00,WUHU216HW,2013-01-16 19:07:00,
2013-01-16 12:12:00,50.4,24.2,30.14,SSE,158,4.0,6.0,36,0.00,,,0.00,WUHU216HW,2013-01-16 19:12:00,
2013-01-16 12:17:00,50.2,23.4,30.14,SW,225,1.8,5.4,35,0.00,,,0.00,WUHU216HW,2013-01-16 19:17:00,
2013-01-16 12:22:00,49.7,23.6,30.13,ENE,68,1.6,4.7,36,0.00,,,0.00,WUHU216HW,2013-01-16 19:22:00,
2013-01-16 12:27:00,50.0,24.6,30.13,South,180,5.4,5.4,37,0.00,,,0.00,WUHU216HW,2013-01-16 19:27:00,
2013-01-16 12:32:00,50.6,25.1,30.13,WSW,248,0.0,5.4,37,0.00,,,0.00,WUHU216HW,2013-01-16 19:32:00,
2013-01-16 12:37:00,50.6,24.4,30.13,SSE,158,3.1,4.0,36,0.00,,,0.00,WUHU216HW,2013-01-16 19:37:00,
2013-01-16 12:42:00,50.8,24.6,30.13,SSW,203,1.8,4.0,36,0.00,,,0.00,WUHU216HW,2013-01-16 19:42:00,
2013-01-16 12:47:00,50.8,24.6,30.13,ENE,68,2.2,6.0,36,0.00,,,0.00,WUHU216HW,2013-01-16 19:47:00,
2013-01-16 12:52:00,50.2,23.4,30.13,SE,135,1.8,6.0,35,0.00,,,0.00,WUHU216HW,2013-01-16 19:52:00,
2013-01-16 12:57:00,50.2,24.0,30.13,South,180,2.7,7.6,36,0.00,,,0.00,WUHU216HW,2013-01-16 19:57:00,
2013-01-16 13:02:00,50.8,24.6,30.13,SE,135,5.1,7.6,36,0.00,,,0.00,WUHU216HW,2013-01-16 20:02:00,
2013-01-16 13:07:00,51.3,24.4,30.13,South,180,4.7,6.9,35,0.00,,,0.00,WUHU216HW,2013-01-16 20:07:00,
2013-01-16 13:12:00,52.2,23.8,30.13,SE,135,8.1,8.1,33,0.00,,,0.00,WUHU216HW,2013-01-16 20:12:00,
2013-01-16 13:17:00,53.3,25.5,30.13,SE,135,2.5,8.1,34,0.00,,,0.00,WUHU216HW,2013-01-16 20:17:00,
2013-01-16 13:22:00,53.1,24.6,30.13,SSW,203,1.8,4.9,33,0.00,,,0.00,WUHU216HW,2013-01-16 20:22:00,
2013-01-16 13:27:00,52.9,24.5,30.13,SSE,158,6.3,6.9,33,0.00,,,0.00,WUHU216HW,2013-01-16 20:27:00,
2013-01-16 13:32:00,53.3,24.8,30.13,South,180,7.2,7.2,33,0.00,,,0.00,WUHU216HW,2013-01-16 20:32:00,
2013-01-16 13:37:00,54.0,25.4,30.13,SE,135,4.5,7.2,33,0.00,,,0.00,WUHU216HW,2013-01-16 20:37:00,
2013-01-16 13:42:00,53.8,24.6,30.13,SE,135,6.9,6.9,32,0.00,,,0.00,WUHU216HW,2013-01-16 20:42:00,
2013-01-16 13:47:00,54.2,24.8,30.13,SW,225,4.7,6.9,32,0.00,,,0.00,WUHU216HW,2013-01-16 20:47:00,
2013-01-16 13:52:00,53.8,24.6,30.13,South,180,5.8,5.8,32,0.00,,,0.00,WUHU216HW,2013-01-16 20:52:00,
2013-01-16 13:57:00,53.8,25.2,30.13,South,180,2.7,5.8,33,0.00,,,0.00,WUHU216HW,2013-01-16 20:57:00,
2013-01-16 14:02:00,53.8,25.2,30.13,SE,135,5.6,6.9,33,0.00,,,0.00,WUHU216HW,2013-01-16 21:02:00,
2013-01-16 14:07:00,54.2,24.8,30.13,SSE,158,4.0,6.9,32,0.00,,,0.00,WUHU216HW,2013-01-16 21:07:00,
2013-01-16 14:12:00,53.8,23.9,30.13,SE,135,1.1,5.4,31,0.00,,,0.00,WUHU216HW,2013-01-16 21:12:00,
2013-01-16 14:17:00,53.6,23.8,30.14,SSE,158,3.4,5.4,31,0.00,,,0.00,WUHU216HW,2013-01-16 21:17:00,
2013-01-16 14:22:00,53.8,23.9,30.14,South,180,4.7,4.7,31,0.00,,,0.00,WUHU216HW,2013-01-16 21:22:00,
2013-01-16 14:27:00,54.0,23.3,30.14,SE,135,2.5,4.7,30,0.00,,,0.00,WUHU216HW,2013-01-16 21:27:00,
2013-01-16 14:32:00,54.0,24.0,30.14,SSE,158,1.1,3.8,31,0.00,,,0.00,WUHU216HW,2013-01-16 21:32:00,
2013-01-16 14:37:00,53.6,22.1,30.14,South,180,3.8,4.3,29,0.00,,,0.00,WUHU216HW,2013-01-16 21:37:00,
2013-01-16 14:42:00,53.6,23.8,30.14,South,180,2.9,4.3,31,0.00,,,0.00,WUHU216HW,2013-01-16 21:42:00,
2013-01-16 14:47:00,53.6,23.8,30.15,ESE,113,3.8,4.9,31,0.00,,,0.00,WUHU216HW,2013-01-16 21:47:00,
2013-01-16 14:52:00,53.6,23.0,30.15,NE,45,2.2,4.9,30,0.00,,,0.00,WUHU216HW,2013-01-16 21:52:00,
2013-01-16 14:57:00,52.7,22.2,30.15,NNE,23,2.9,2.9,30,0.00,,,0.00,WUHU216HW,2013-01-16 21:57:00,
2013-01-16 15:02:00,52.2,22.4,30.15,NE,45,1.6,3.4,31,0.00,,,0.00,WUHU216HW,2013-01-16 22:02:00,
2013-01-16 15:07:00,52.0,22.2,30.15,SSW,203,2.2,4.5,31,0.00,,,0.00,WUHU216HW,2013-01-16 22:07:00,
2013-01-16 15:12:00,51.8,22.8,30.15,NE,45,3.1,4.5,32,0.00,,,0.00,WUHU216HW,2013-01-16 22:12:00,
2013-01-16 15:17:00,51.7,24.0,30.16,SE,135,4.0,4.3,34,0.00,,,0.00,WUHU216HW,2013-01-16 22:17:00,
2013-01-16 15:22:00,51.5,23.9,30.16,ESE,113,3.8,4.0,34,0.00,,,0.00,WUHU216HW,2013-01-16 22:22:00,
2013-01-16 15:27:00,51.5,23.9,30.16,East,90,1.1,4.0,34,0.00,,,0.00,WUHU216HW,2013-01-16 22:27:00,
2013-01-16 15:32:00,51.3,25.0,30.16,NE,45,2.5,6.0,36,0.00,,,0.00,WUHU216HW,2013-01-16 22:32:00,
2013-01-16 15:37:00,50.9,24.8,30.16,ENE,68,1.6,6.0,36,0.00,,,0.00,WUHU216HW,2013-01-16 22:37:00,
2013-01-16 15:42:00,50.8,24.6,30.16,NNE,23,6.0,6.0,36,0.00,,,0.00,WUHU216HW,2013-01-16 22:42:00,
2013-01-16 15:47:00,50.8,24.6,30.17,NE,45,4.0,6.0,36,0.00,,,0.00,WUHU216HW,2013-01-16 22:47:00,
2013-01-16 15:52:00,50.6,25.1,30.17,ENE,68,4.7,5.4,37,0.00,,,0.00,WUHU216HW,2013-01-16 22:52:00,
2013-01-16 15:57:00,50.2,24.8,30.16,NNE,23,1.3,5.4,37,0.00,,,0.00,WUHU216HW,2013-01-16 22:57:00,
2013-01-16 16:02:00,49.9,25.1,30.17,East,90,2.5,5.4,38,0.00,,,0.00,WUHU216HW,2013-01-16 23:02:00,
2013-01-16 16:07:00,49.5,24.9,30.17,East,90,2.5,4.7,38,0.00,,,0.00,WUHU216HW,2013-01-16 23:07:00,
2013-01-16 16:12:00,49.3,24.7,30.17,SE,135,3.6,3.6,38,0.00,,,0.00,WUHU216HW,2013-01-16 23:12:00,
2013-01-16 16:17:00,49.1,25.1,30.18,East,90,2.2,4.3,39,0.00,,,0.00,WUHU216HW,2013-01-16 23:17:00,
2013-01-16 16:22:00,48.8,24.9,30.18,ESE,113,1.1,4.3,39,0.00,,,0.00,WUHU216HW,2013-01-16 23:22:00,
2013-01-16 16:27:00,48.6,25.4,30.18,ESE,113,4.3,4.3,40,0.00,,,0.00,WUHU216HW,2013-01-16 23:27:00,
2013-01-16 16:32:00,48.2,25.0,30.18,ESE,113,2.7,4.7,40,0.00,,,0.00,WUHU216HW,2013-01-16 23:32:00,
2013-01-16 16:37:00,47.9,24.7,30.18,SE,135,3.4,4.7,40,0.00,,,0.00,WUHU216HW,2013-01-16 23:37:00,
2013-01-16 16:42:00,47.9,24.7,30.18,SE,135,4.7,6.0,40,0.00,,,0.00,WUHU216HW,2013-01-16 23:42:00,
2013-01-16 16:47:00,47.5,24.4,30.19,SE,135,5.1,6.0,40,0.00,,,0.00,WUHU216HW,2013-01-16 23:47:00,
2013-01-16 16:52:00,47.3,24.8,30.19,SE,135,2.5,5.1,41,0.00,,,0.00,WUHU216HW,2013-01-16 23:52:00,
2013-01-16 16:57:00,47.0,24.9,30.19,ESE,113,3.6,4.7,42,0.00,,,0.00,WUHU216HW,2013-01-16 23:57:00,
2013-01-16 17:02:00,46.4,25.0,30.20,ESE,113,3.4,3.6,43,0.00,,,0.00,WUHU216HW,2013-01-17 00:02:00,
2013-01-16 17:07:00,45.9,25.1,30.20,East,90,2.5,4.9,44,0.00,,,0.00,WUHU216HW,2013-01-17 00:07:00,
2013-01-16 17:12:00,45.4,25.1,30.20,East,90,5.4,5.4,45,0.00,,,0.00,WUHU216HW,2013-01-17 00:12:00,
2013-01-16 17:17:00,45.0,25.4,30.20,East,90,3.6,5.4,46,0.00,,,0.00,WUHU216HW,2013-01-17 00:17:00,
2013-01-16 17:22:00,44.8,25.2,30.20,ENE,68,5.1,5.4,46,0.00,,,0.00,WUHU216HW,2013-01-17 00:22:00,
2013-01-16 17:27:00,44.5,24.8,30.20,SE,135,3.6,5.4,46,0.00,,,0.00,WUHU216HW,2013-01-17 00:27:00,
2013-01-16 17:32:00,44.3,24.7,30.21,ESE,113,4.0,4.7,46,0.00,,,0.00,WUHU216HW,2013-01-17 00:32:00,
2013-01-16 17:37:00,43.9,24.9,30.21,SSE,158,2.0,4.0,47,0.00,,,0.00,WUHU216HW,2013-01-17 00:37:00,
2013-01-16 17:42:00,43.6,24.0,30.21,WSW,248,0.4,3.6,46,0.00,,,0.00,WUHU216HW,2013-01-17 00:42:00,
2013-01-16 17:47:00,43.2,24.3,30.22,NW,315,1.6,2.9,47,0.00,,,0.00,WUHU216HW,2013-01-17 00:47:00,
2013-01-16 17:52:00,42.7,24.3,30.22,NW,315,1.6,2.2,48,0.00,,,0.00,WUHU216HW,2013-01-17 00:52:00,
2013-01-16 17:57:00,41.9,24.1,30.22,NNE,23,0.2,2.2,49,0.00,,,0.00,WUHU216HW,2013-01-17 00:57:00,
2013-01-16 18:02:00,41.4,23.6,30.23,WSW,248,0.0,1.1,49,0.00,,,0.00,WUHU216HW,2013-01-17 01:02:00,
2013-01-16 18:07:00,40.9,23.0,30.23,SSE,158,0.0,3.1,49,0.00,,,0.00,WUHU216HW,2013-01-17 01:07:00,
2013-01-16 18:12:00,40.7,23.0,30.23,SSW,203,0.4,3.1,49,0.00,,,0.00,WUHU216HW,2013-01-17 01:12:00,
2013-01-16 18:17:00,40.3,23.1,30.23,NW,315,0.4,0.7,50,0.00,,,0.00,WUHU216HW,2013-01-17 01:17:00,
2013-01-16 18:22:00,40.0,22.8,30.23,NW,315,1.1,2.7,50,0.00,,,0.00,WUHU216HW,2013-01-17 01:22:00,
2013-01-16 18:27:00,39.6,22.9,30.24,NW,315,0.4,2.7,51,0.00,,,0.00,WUHU216HW,2013-01-17 01:27:00,
2013-01-16 18:32:00,39.1,22.4,30.24,ENE,68,1.6,1.6,51,0.00,,,0.00,WUHU216HW,2013-01-17 01:32:00,
2013-01-16 18:37:00,38.5,22.3,30.24,ENE,68,1.8,2.5,52,0.00,,,0.00,WUHU216HW,2013-01-17 01:37:00,
2013-01-16 18:42:00,38.0,22.3,30.25,SE,135,4.0,4.9,53,0.00,,,0.00,WUHU216HW,2013-01-17 01:42:00,
2013-01-16 18:47:00,38.3,22.2,30.25,ESE,113,2.5,5.4,52,0.00,,,0.00,WUHU216HW,2013-01-17 01:47:00,
2013-01-16 18:52:00,38.5,22.0,30.25,SE,135,4.7,5.4,51,0.00,,,0.00,WUHU216HW,2013-01-17 01:52:00,
2013-01-16 18:57:00,38.9,21.8,30.26,SE,135,2.5,4.7,50,0.00,,,0.00,WUHU216HW,2013-01-17 01:57:00,
2013-01-16 19:02:00,38.9,21.8,30.25,SE,135,2.5,4.3,50,0.00,,,0.00,WUHU216HW,2013-01-17 02:02:00,
2013-01-16 19:07:00,38.9,21.8,30.26,SSE,158,3.8,4.7,50,0.00,,,0.00,WUHU216HW,2013-01-17 02:07:00,
2013-01-16 19:12:00,39.1,22.0,30.26,SE,135,3.8,7.2,50,0.00,,,0.00,WUHU216HW,2013-01-17 02:12:00,
2013-01-16 19:17:00,38.9,21.8,30.26,SSE,158,2.7,7.2,50,0.00,,,0.00,WUHU216HW,2013-01-17 02:17:00,
2013-01-16 19:22:00,38.7,21.7,30.26,South,180,3.1,4.9,50,0.00,,,0.00,WUHU216HW,2013-01-17 02:22:00,
2013-01-16 19:27:00,38.5,21.5,30.27,WSW,248,2.2,3.6,50,0.00,,,0.00,WUHU216HW,2013-01-17 02:27:00,
2013-01-16 19:32:00,38.0,21.0,30.27,SSW,203,3.4,4.0,50,0.00,,,0.00,WUHU216HW,2013-01-17 02:32:00,
2013-01-16 19:37:00,37.4,20.5,30.28,SSE,158,1.3,4.0,50,0.00,,,0.00,WUHU216HW,2013-01-17 02:37:00,
2013-01-16 19:42:00,37.3,20.3,30.27,South,180,1.8,3.1,50,0.00,,,0.00,WUHU216HW,2013-01-17 02:42:00,
2013-01-16 19:47:00,37.3,20.3,30.28,SSW,203,3.6,3.6,50,0.00,,,0.00,WUHU216HW,2013-01-17 02:47:00,
2013-01-16 19:52:00,37.1,20.6,30.27,South,180,1.1,3.6,51,0.00,,,0.00,WUHU216HW,2013-01-17 02:52:00,
2013-01-16 19:57:00,37.1,20.6,30.28,SSE,158,1.8,2.5,51,0.00,,,0.00,WUHU216HW,2013-01-17 02:57:00,
2013-01-16 20:02:00,36.9,20.9,30.27,SSE,158,2.5,3.1,52,0.00,,,0.00,WUHU216HW,2013-01-17 03:02:00,
2013-01-16 20:07:00,36.7,20.7,30.28,SE,135,2.0,3.4,52,0.00,,,0.00,WUHU216HW,2013-01-17 03:07:00,
2013-01-16 20:12:00,36.5,20.6,30.28,SE,135,3.8,3.8,52,0.00,,,0.00,WUHU216HW,2013-01-17 03:12:00,
2013-01-16 20:17:00,36.5,21.0,30.28,SSE,158,3.6,4.0,53,0.00,,,0.00,WUHU216HW,2013-01-17 03:17:00,
2013-01-16 20:22:00,36.5,21.0,30.29,South,180,4.7,4.7,53,0.00,,,0.00,WUHU216HW,2013-01-17 03:22:00,
2013-01-16 20:27:00,36.5,21.0,30.29,South,180,2.7,4.7,53,0.00,,,0.00,WUHU216HW,2013-01-17 03:27:00,
2013-01-16 20:32:00,36.5,21.0,30.29,South,180,1.1,4.0,53,0.00,,,0.00,WUHU216HW,2013-01-17 03:32:00,
2013-01-16 20:37:00,36.4,20.9,30.29,West,270,0.0,4.0,53,0.00,,,0.00,WUHU216HW,2013-01-17 03:37:00,
2013-01-16 20:42:00,36.0,20.5,30.29,NNW,338,0.9,3.4,53,0.00,,,0.00,WUHU216HW,2013-01-17 03:42:00,
2013-01-16 20:47:00,35.5,20.0,30.29,NW,315,1.1,3.4,53,0.00,,,0.00,WUHU216HW,2013-01-17 03:47:00,
2013-01-16 20:52:00,35.1,19.6,30.29,West,270,2.5,2.5,53,0.00,,,0.00,WUHU216HW,2013-01-17 03:52:00,
2013-01-16 20:58:00,34.7,20.2,30.29,WSW,248,2.2,3.6,55,0.00,,,0.00,WUHU216HW,2013-01-17 03:58:00,
2013-01-16 21:03:00,34.4,19.8,30.29,West,270,1.6,3.6,55,0.00,,,0.00,WUHU216HW,2013-01-17 04:03:00,
2013-01-16 21:08:00,34.2,19.6,30.29,SW,225,3.8,4.0,55,0.00,,,0.00,WUHU216HW,2013-01-17 04:08:00,
2013-01-16 21:13:00,33.8,19.3,30.29,SW,225,4.0,4.0,55,0.00,,,0.00,WUHU216HW,2013-01-17 04:13:00,
2013-01-16 21:18:00,33.8,19.7,30.29,WSW,248,0.0,4.0,56,0.00,,,0.00,WUHU216HW,2013-01-17 04:18:00,
2013-01-16 21:23:00,33.7,19.5,30.29,West,270,0.0,3.4,56,0.00,,,0.00,WUHU216HW,2013-01-17 04:23:00,
2013-01-16 21:28:00,33.7,19.5,30.29,WSW,248,0.2,3.4,56,0.00,,,0.00,WUHU216HW,2013-01-17 04:28:00,
2013-01-16 21:33:00,33.7,19.5,30.29,SW,225,2.5,3.4,56,0.00,,,0.00,WUHU216HW,2013-01-17 04:33:00,
2013-01-16 21:38:00,33.5,19.4,30.29,WSW,248,0.9,3.4,56,0.00,,,0.00,WUHU216HW,2013-01-17 04:38:00,
2013-01-16 21:43:00,33.5,19.4,30.29,WSW,248,2.2,3.4,56,0.00,,,0.00,WUHU216HW,2013-01-17 04:43:00,
2013-01-16 21:48:00,33.5,19.4,30.29,WSW,248,2.5,3.6,56,0.00,,,0.00,WUHU216HW,2013-01-17 04:48:00,
2013-01-16 21:53:00,33.3,19.2,30.29,SW,225,1.3,3.6,56,0.00,,,0.00,WUHU216HW,2013-01-17 04:53:00,
2013-01-16 21:58:00,33.1,19.1,30.29,SW,225,0.4,2.5,56,0.00,,,0.00,WUHU216HW,2013-01-17 04:58:00,
2013-01-16 22:03:00,32.9,18.9,30.29,WSW,248,1.6,2.5,56,0.00,,,0.00,WUHU216HW,2013-01-17 05:03:00,
2013-01-16 22:08:00,32.9,18.9,30.29,West,270,0.0,2.5,56,0.00,,,0.00,WUHU216HW,2013-01-17 05:08:00,
2013-01-16 22:13:00,32.8,18.7,30.29,SW,225,0.0,1.8,56,0.00,,,0.00,WUHU216HW,2013-01-17 05:13:00,
2013-01-16 22:18:00,32.6,18.5,30.29,SW,225,1.3,1.8,56,0.00,,,0.00,WUHU216HW,2013-01-17 05:18:00,
2013-01-16 22:23:00,32.6,18.5,30.29,WSW,248,1.3,1.3,56,0.00,,,0.00,WUHU216HW,2013-01-17 05:23:00,
2013-01-16 22:28:00,32.4,18.4,30.29,WSW,248,0.0,1.3,56,0.00,,,0.00,WUHU216HW,2013-01-17 05:28:00,
2013-01-16 22:33:00,32.2,18.3,30.28,SSW,203,0.0,0.0,56,0.00,,,0.00,WUHU216HW,2013-01-17 05:33:00,
2013-01-16 22:38:00,32.0,18.1,30.29,West,270,0.0,0.0,56,0.00,,,0.00,WUHU216HW,2013-01-17 05:38:00,
2013-01-16 22:43:00,31.7,17.7,30.29,North,0,0.0,0.0,56,0.00,,,0.00,WUHU216HW,2013-01-17 05:43:00,
2013-01-16 22:48:00,31.5,18.0,30.29,NW,315,0.0,0.2,57,0.00,,,0.00,WUHU216HW,2013-01-17 05:48:00,
2013-01-16 22:53:00,31.3,17.8,30.29,NNE,23,0.0,0.2,57,0.00,,,0.00,WUHU216HW,2013-01-17 05:53:00,
2013-01-16 22:58:00,31.0,17.9,30.29,NNE,23,1.6,1.6,58,0.00,,,0.00,WUHU216HW,2013-01-17 05:58:00,
2013-01-16 23:03:00,30.8,17.7,30.29,North,0,0.2,1.6,58,0.00,,,0.00,WUHU216HW,2013-01-17 06:03:00,
2013-01-16 23:08:00,30.6,17.9,30.29,NW,315,0.0,1.1,59,0.00,,,0.00,WUHU216HW,2013-01-17 06:08:00,
2013-01-16 23:13:00,30.6,17.9,30.29,NE,45,1.3,1.3,59,0.00,,,0.00,WUHU216HW,2013-01-17 06:13:00,
2013-01-16 23:18:00,30.6,18.4,30.29,NE,45,0.0,1.3,60,0.00,,,0.00,WUHU216HW,2013-01-17 06:18:00,
2013-01-16 23:23:00,30.4,17.7,30.29,NNE,23,0.0,0.9,59,0.00,,,0.00,WUHU216HW,2013-01-17 06:23:00,
2013-01-16 23:28:00,30.2,17.6,30.29,North,0,0.0,0.9,59,0.00,,,0.00,WUHU216HW,2013-01-17 06:28:00,
2013-01-16 23:33:00,30.1,17.5,30.29,North,0,0.0,0.0,59,0.00,,,0.00,WUHU216HW,2013-01-17 06:33:00,
2013-01-16 23:38:00,30.1,17.5,30.29,North,0,0.0,0.0,59,0.00,,,0.00,WUHU216HW,2013-01-17 06:38:00,
2013-01-16 23:43:00,29.9,17.3,30.29,NW,315,0.0,0.0,59,0.00,,,0.00,WUHU216HW,2013-01-17 06:43:00,
2013-01-16 23:48:00,29.7,17.1,30.30,ENE,68,0.4,1.1,59,0.00,,,0.00,WUHU216HW,2013-01-17 06:48:00,
2013-01-16 23:53:00,29.2,16.7,30.30,NW,315,0.2,1.1,59,0.00,,,0.00,WUHU216HW,2013-01-17 06:53:00,
2013-01-16 23:58:00,29.0,16.8,30.30,ESE,113,0.0,0.9,60,0.00,,,0.00,WUHU216HW,2013-01-17 06:58:00,